Time;durP1;ratioP1;P1;durP2;ratioP2;P2;SDS_P1;SDS_P2;PMS_P1;PMS_P2;Temp;Humidity;BMP_temperature;BMP_pressure;BME280_temperature;BME280_humidity;BME280_pressure;Samples;Min_cycle;Max_cycle;Signal;HPM_P1;HPM_P2
2022/07/26 00:00:32;;;;;;;21.88;14.68;;;;;;;22.70;71.99;94550.13;4964254;28;20209;-82
2022/07/26 00:02:59;;;;;;;21.58;15.38;;;;;;;22.50;72.60;94552.09;4971193;28;20688;-83
2022/07/26 00:05:26;;;;;;;20.58;14.73;;;;;;;22.53;73.17;94550.69;4963927;28;20208;-83
2022/07/26 00:08:09;;;;;;;19.10;15.13;;;;;;;22.36;73.57;94543.34;4970130;28;20210;-83
2022/07/26 00:10:37;;;;;;;18.95;14.70;;;;;;;22.05;75.08;94545.75;4970913;28;20212;-83
2022/07/26 00:13:04;;;;;;;21.30;14.65;;;;;;;21.87;76.46;94524.63;4964186;28;20208;-83
2022/07/26 00:15:31;;;;;;;17.88;14.35;;;;;;;21.71;77.94;94547.09;4970684;28;20239;-83
2022/07/26 00:17:58;;;;;;;21.52;15.20;;;;;;;21.55;78.87;94533.34;4965496;28;20664;-82
2022/07/26 00:20:25;;;;;;;16.10;13.95;;;;;;;21.35;80.54;94528.38;4974421;28;20294;-82
2022/07/26 00:22:51;;;;;;;20.73;14.35;;;;;;;21.27;80.91;94535.09;4963446;28;20205;-82
2022/07/26 00:25:20;;;;;;;19.98;14.35;;;;;;;21.45;80.34;94531.63;4972786;28;20208;-82
2022/07/26 00:27:47;;;;;;;17.67;14.85;;;;;;;21.66;79.62;94531.31;4963888;28;20209;-82
2022/07/26 00:30:14;;;;;;;18.05;14.25;;;;;;;21.85;78.07;94526.75;4972652;28;20223;-80
2022/07/26 00:32:42;;;;;;;23.13;14.77;;;;;;;21.94;77.66;94528.47;4974415;28;20268;-81
2022/07/26 00:35:09;;;;;;;18.50;14.48;;;;;;;22.07;76.74;94534.09;4972083;28;20231;-83
2022/07/26 00:37:36;;;;;;;17.08;14.43;;;;;;;22.15;75.82;94526.25;4974248;28;20209;-81
2022/07/26 00:40:03;;;;;;;22.17;14.35;;;;;;;22.21;75.45;94522.44;4974281;28;20230;-82
2022/07/26 00:42:31;;;;;;;22.55;14.63;;;;;;;22.21;75.26;94516.34;4974308;28;20204;-84
2022/07/26 00:44:58;;;;;;;19.00;15.10;;;;;;;22.24;75.34;94513.91;4974173;28;20201;-83
2022/07/26 00:47:25;;;;;;;20.92;15.23;;;;;;;22.20;75.42;94523.50;4969820;28;20209;-83
2022/07/26 00:49:52;;;;;;;19.70;14.45;;;;;;;22.10;76.03;94521.06;4970962;28;20754;-81
2022/07/26 00:52:19;;;;;;;20.05;15.60;;;;;;;21.98;76.83;94524.19;4958518;28;20233;-80
2022/07/26 00:54:46;;;;;;;24.90;15.23;;;;;;;21.75;77.94;94526.94;4973587;28;20776;-80
2022/07/26 00:57:13;;;;;;;22.55;14.75;;;;;;;21.73;78.33;94516.63;4967466;28;20255;-81
2022/07/26 00:59:42;;;;;;;20.85;15.60;;;;;;;21.71;78.73;94523.28;4973179;28;20204;-81
2022/07/26 01:02:10;;;;;;;20.73;15.48;;;;;;;21.74;78.43;94523.50;4973637;28;20207;-81
2022/07/26 01:04:37;;;;;;;17.73;14.70;;;;;;;21.80;78.33;94521.56;4964950;28;20204;-82
2022/07/26 01:07:03;;;;;;;19.02;14.27;;;;;;;21.91;77.69;94529.06;4960810;28;20205;-80
2022/07/26 01:09:30;;;;;;;19.67;15.18;;;;;;;22.03;76.86;94525.94;4970596;28;20243;-80
2022/07/26 01:11:58;;;;;;;18.27;14.32;;;;;;;22.10;76.82;94528.22;4967582;28;20216;-80
2022/07/26 01:14:25;;;;;;;20.38;14.73;;;;;;;22.19;75.97;94523.81;4973349;28;20225;-80
2022/07/26 01:16:54;;;;;;;17.95;14.57;;;;;;;22.26;75.28;94529.50;4973643;28;20255;-80
2022/07/26 01:19:21;;;;;;;22.73;14.48;;;;;;;22.25;75.19;94518.09;4973081;28;20236;-79
2022/07/26 01:21:51;;;;;;;19.35;13.45;;;;;;;22.23;75.53;94514.97;4972993;28;20590;-80
2022/07/26 01:24:18;;;;;;;21.95;14.48;;;;;;;22.22;75.48;94513.41;4966966;28;20209;-81
2022/07/26 01:26:45;;;;;;;20.48;15.23;;;;;;;22.26;75.46;94519.69;4970064;28;20676;-80
2022/07/26 01:29:11;;;;;;;19.27;14.07;;;;;;;22.26;75.64;94522.34;4969060;28;20205;-81
2022/07/26 01:31:38;;;;;;;21.23;14.93;;;;;;;22.21;75.62;94517.16;4960838;28;20208;-81
2022/07/26 01:34:05;;;;;;;23.23;15.40;;;;;;;22.20;75.93;94520.88;4972499;28;20228;-81
2022/07/26 01:36:32;;;;;;;20.02;15.25;;;;;;;22.20;76.37;94517.41;4971887;28;20240;-81
2022/07/26 01:39:00;;;;;;;22.42;16.10;;;;;;;22.16;76.04;94503.22;4967487;28;20210;-82
2022/07/26 01:41:27;;;;;;;27.30;16.02;;;;;;;22.20;76.08;94512.91;4966668;28;20597;-82
2022/07/26 01:43:54;;;;;;;25.58;15.75;;;;;;;22.12;75.91;94505.66;4966570;28;20207;-82
2022/07/26 01:46:22;;;;;;;19.75;15.40;;;;;;;22.19;76.16;94507.94;4970529;28;20208;-81
2022/07/26 01:48:49;;;;;;;24.50;15.63;;;;;;;22.10;76.03;94502.53;4968751;28;20208;-81
2022/07/26 01:51:16;;;;;;;22.73;15.45;;;;;;;22.15;76.42;94520.97;4972731;28;20239;-83
2022/07/26 01:53:44;;;;;;;17.63;14.75;;;;;;;22.13;76.20;94509.88;4973049;28;20319;-80
2022/07/26 01:56:13;;;;;;;20.60;15.35;;;;;;;22.09;76.37;94514.19;4972726;28;20675;-80
2022/07/26 01:58:40;;;;;;;21.73;15.82;;;;;;;22.04;76.42;94517.72;4965906;28;20578;-82
2022/07/26 02:01:07;;;;;;;21.10;14.55;;;;;;;22.08;76.65;94511.84;4972096;28;20570;-81
2022/07/26 02:03:34;;;;;;;20.95;15.07;;;;;;;22.05;76.46;94524.56;4972127;28;20205;-81
2022/07/26 02:06:01;;;;;;;22.00;15.00;;;;;;;22.03;76.71;94524.09;4967861;28;20201;-81
2022/07/26 02:08:28;;;;;;;22.27;14.95;;;;;;;22.01;76.31;94513.00;4966284;28;20293;-82
2022/07/26 02:11:01;;;;;;;19.10;15.65;;;;;;;22.04;76.16;94523.03;4966165;28;20217;-81
2022/07/26 02:13:29;;;;;;;21.05;15.23;;;;;;;;;;4960081;28;20216;-82
2022/07/26 02:15:58;;;;;;;20.75;15.75;;;;;;;21.91;76.62;94523.75;4972367;28;20208;-82
2022/07/26 02:18:26;;;;;;;20.05;16.55;;;;;;;21.86;77.24;94530.97;4969599;28;20205;-83
2022/07/26 02:20:53;;;;;;;21.35;15.77;;;;;;;21.76;77.49;94520.59;4969369;28;20223;-81
2022/07/26 02:23:21;;;;;;;27.88;16.20;;;;;;;21.84;77.56;94531.28;4972311;28;20303;-83
2022/07/26 02:25:48;;;;;;;24.20;15.45;;;;;;;21.66;78.33;94515.44;4966357;28;21244;-83
2022/07/26 02:28:15;;;;;;;20.58;14.93;;;;;;;21.76;78.37;94528.53;4966294;28;20204;-84
2022/07/26 02:30:45;;;;;;;18.27;15.25;;;;;;;21.79;78.38;94533.22;4963169;28;20220;-82
2022/07/26 02:33:12;;;;;;;17.33;15.40;;;;;;;21.77;78.56;94522.91;4962536;28;20208;-82
2022/07/26 02:35:39;;;;;;;19.80;15.65;;;;;;;21.79;78.34;94533.22;4968498;28;20799;-82
2022/07/26 02:38:08;;;;;;;19.17;15.82;;;;;;;21.69;78.55;94517.50;4968452;28;20215;-83
2022/07/26 02:40:36;;;;;;;18.27;14.73;;;;;;;21.68;79.42;94529.16;4972436;28;20212;-81
2022/07/26 02:43:04;;;;;;;19.58;15.73;;;;;;;21.71;79.21;94525.94;4971967;28;20207;-82
2022/07/26 02:45:31;;;;;;;21.60;15.65;;;;;;;21.66;79.44;94536.59;4972114;28;20201;-82
2022/07/26 02:47:59;;;;;;;20.70;15.90;;;;;;;21.58;79.80;94524.84;4965234;28;20217;-82
2022/07/26 02:50:28;;;;;;;19.45;15.52;;;;;;;21.47;79.72;94520.78;4963028;28;20720;-83
2022/07/26 02:52:55;;;;;;;19.73;15.35;;;;;;;21.54;79.45;94531.78;4962715;28;20656;-83
2022/07/26 02:55:25;;;;;;;24.38;14.85;;;;;;;21.50;79.45;94528.13;4969219;28;20227;-83
2022/07/26 02:57:52;;;;;;;18.13;14.80;;;;;;;21.53;79.74;94534.72;4962505;28;20201;-82
2022/07/26 03:00:21;;;;;;;19.25;15.15;;;;;;;21.50;78.86;94528.13;4965859;28;20216;-81
2022/07/26 03:02:50;;;;;;;20.80;15.13;;;;;;;21.50;79.25;94536.06;4965509;28;20205;-81
2022/07/26 03:05:19;;;;;;;21.30;14.02;;;;;;;21.51;78.74;94535.00;4967692;28;20291;-82
2022/07/26 03:07:46;;;;;;;22.38;15.05;;;;;;;21.41;79.54;94525.34;4961993;28;20687;-82
2022/07/26 03:10:12;;;;;;;21.40;15.18;;;;;;;21.45;79.70;94538.78;4968609;28;20664;-82
2022/07/26 03:12:39;;;;;;;23.10;16.02;;;;;;;21.41;79.99;94535.16;4971690;28;20201;-82
2022/07/26 03:15:07;;;;;;;20.58;15.25;;;;;;;21.27;80.29;94527.16;4964985;28;20227;-82
2022/07/26 03:17:34;;;;;;;19.38;14.82;;;;;;;21.29;80.29;94532.16;4971362;28;20263;-83
2022/07/26 03:20:02;;;;;;;19.02;15.02;;;;;;;21.34;80.25;94547.94;4971355;28;20207;-83
2022/07/26 03:22:31;;;;;;;20.08;14.65;;;;;;;21.35;79.85;94549.53;4971540;28;20209;-84
2022/07/26 03:24:58;;;;;;;22.05;14.75;;;;;;;21.27;78.83;94548.31;4971710;28;20200;-83
2022/07/26 03:27:25;;;;;;;19.30;14.10;;;;;;;21.17;77.28;94543.19;4971497;28;20268;-85
2022/07/26 03:29:52;;;;;;;22.13;14.73;;;;;;;21.00;78.41;94542.88;4972010;28;20235;-84
2022/07/26 03:32:19;;;;;;;21.20;13.93;;;;;;;20.90;79.27;94548.25;4971638;28;20208;-84
2022/07/26 03:34:46;;;;;;;21.30;13.98;;;;;;;20.97;79.09;94543.44;4964917;28;20233;-84
2022/07/26 03:37:13;;;;;;;17.67;13.70;;;;;;;20.99;78.98;94545.78;4971566;28;20216;-83
2022/07/26 03:39:41;;;;;;;20.50;13.05;;;;;;;20.97;77.32;94551.34;4971291;28;20308;-84
2022/07/26 03:42:08;;;;;;;16.80;13.60;;;;;;;20.89;76.48;94549.34;4970712;28;20208;-83
2022/07/26 03:44:35;;;;;;;18.13;12.60;;;;;;;20.93;76.05;94547.69;4970696;28;20205;-83
2022/07/26 03:47:02;;;;;;;26.50;12.10;;;;;;;20.94;76.30;94547.44;4970812;28;20217;-79
2022/07/26 03:49:28;;;;;;;18.02;12.68;;;;;;;21.04;75.62;94543.09;4971035;28;20219;-79
2022/07/26 03:51:55;;;;;;;17.15;13.25;;;;;;;21.11;75.92;94544.31;4964293;28;20233;-79
2022/07/26 03:54:22;;;;;;;15.98;13.40;;;;;;;21.14;76.16;94535.03;4961871;28;20687;-81
2022/07/26 03:56:50;;;;;;;22.10;14.07;;;;;;;21.25;75.78;94544.38;4975042;28;20205;-80
2022/07/26 03:59:18;;;;;;;20.98;14.02;;;;;;;21.28;76.59;94533.22;4974722;28;20263;-80
2022/07/26 04:01:46;;;;;;;23.25;13.90;;;;;;;21.42;76.51;94547.28;4968351;28;20236;-80
2022/07/26 04:04:16;;;;;;;22.27;13.93;;;;;;;21.44;75.92;94551.22;4964086;28;20197;-80
2022/07/26 04:06:43;;;;;;;18.00;14.65;;;;;;;21.48;74.90;94538.22;4968399;28;20612;-80
2022/07/26 04:09:10;;;;;;;18.90;14.27;;;;;;;21.50;74.98;94536.84;4974884;28;20205;-80
2022/07/26 04:11:37;;;;;;;21.75;14.07;;;;;;;21.52;75.19;94541.06;4974888;28;20679;-80
2022/07/26 04:14:05;;;;;;;19.45;13.70;;;;;;;21.54;74.94;94534.41;4972462;28;20205;-79
2022/07/26 04:16:32;;;;;;;18.80;13.98;;;;;;;21.50;74.20;94539.50;4968196;28;20702;-79
2022/07/26 04:18:59;;;;;;;21.90;14.52;;;;;;;21.55;73.96;94540.50;4970261;28;20232;-79
2022/07/26 04:21:44;;;;;;;16.80;13.40;;;;;;;21.57;73.59;94536.47;4938920;28;20227;-79
2022/07/26 04:24:10;;;;;;;20.15;13.40;;;;;;;21.62;73.01;94531.09;4967947;28;20205;-80
2022/07/26 04:26:37;;;;;;;19.25;14.07;;;;;;;21.61;73.26;94532.19;4970755;28;20756;-80
2022/07/26 04:29:07;;;;;;;20.83;14.35;;;;;;;21.65;73.52;94530.53;4971017;28;20209;-79
2022/07/26 04:31:33;;;;;;;25.48;14.10;;;;;;;21.66;73.44;94531.31;4970334;28;20213;-80
2022/07/26 04:34:00;;;;;;;18.98;14.70;;;;;;;21.60;73.81;94519.25;4971607;28;20205;-80
2022/07/26 04:36:27;;;;;;;18.52;13.95;;;;;;;21.73;74.12;94532.50;4973808;28;20246;-79
2022/07/26 04:38:54;;;;;;;23.55;14.57;;;;;;;21.79;73.73;94530.59;4968268;28;20201;-80
2022/07/26 04:41:21;;;;;;;23.40;14.45;;;;;;;21.86;73.15;94533.63;4967709;28;20213;-80
2022/07/26 04:43:47;;;;;;;20.15;14.70;;;;;;;21.91;73.47;94530.91;4970393;28;20228;-80
2022/07/26 04:46:17;;;;;;;23.88;16.67;;;;;;;21.93;74.43;94532.19;4971003;28;20227;-80
2022/07/26 04:48:44;;;;;;;23.80;17.10;;;;;;;21.97;75.59;94532.41;4949960;28;20215;-79
2022/07/26 04:51:11;;;;;;;25.38;17.55;;;;;;;22.01;76.02;94531.53;4948190;28;21072;-79
2022/07/26 04:53:38;;;;;;;27.42;18.45;;;;;;;22.08;75.85;94536.44;4957474;28;20682;-79
2022/07/26 04:56:05;;;;;;;27.25;18.08;;;;;;;22.10;75.95;94539.59;4972901;28;20229;-81
2022/07/26 04:58:32;;;;;;;21.13;17.50;;;;;;;22.11;75.91;94527.16;4967208;28;20209;-81
2022/07/26 05:00:59;;;;;;;27.15;17.58;;;;;;;22.11;76.32;94538.50;4965032;28;20217;-81
2022/07/26 05:03:27;;;;;;;26.98;18.67;;;;;;;22.17;76.00;94533.91;4966009;28;20205;-80
2022/07/26 05:05:54;;;;;;;24.98;18.17;;;;;;;22.19;76.27;94532.56;4962437;28;20212;-79
2022/07/26 05:08:21;;;;;;;26.75;19.52;;;;;;;22.23;76.35;94536.16;4972944;28;20224;-77
2022/07/26 05:10:48;;;;;;;23.20;18.75;;;;;;;22.19;76.77;94537.06;4961314;28;20194;-77
2022/07/26 05:13:15;;;;;;;24.65;18.85;;;;;;;22.25;76.71;94523.41;4962699;28;20201;-76
2022/07/26 05:15:42;;;;;;;26.27;19.30;;;;;;;22.17;77.56;94518.78;4972939;28;20725;-77
2022/07/26 05:18:10;;;;;;;28.77;18.88;;;;;;;22.23;77.56;94522.13;4972217;28;20248;-78
2022/07/26 05:20:38;;;;;;;25.33;18.42;;;;;;;22.32;77.24;94525.66;4964958;28;20213;-76
2022/07/26 05:23:06;;;;;;;31.85;19.70;;;;;;;22.34;77.12;94519.00;4972164;28;20286;-80
2022/07/26 05:25:33;;;;;;;35.03;19.55;;;;;;;22.38;77.08;94527.16;4972435;28;20205;-79
2022/07/26 05:28:00;;;;;;;28.75;19.38;;;;;;;22.40;76.96;94520.47;4972393;28;20205;-79
2022/07/26 05:30:27;;;;;;;29.55;19.48;;;;;;;22.41;77.18;94518.63;4971933;28;20209;-79
2022/07/26 05:32:53;;;;;;;24.73;19.25;;;;;;;22.40;77.19;94520.47;4972538;28;20205;-78
2022/07/26 05:35:20;;;;;;;26.58;19.80;;;;;;;22.48;77.54;94521.66;4964147;28;20239;-79
2022/07/26 05:37:49;;;;;;;34.97;19.65;;;;;;;22.43;77.38;94514.59;4966936;28;20719;-79
2022/07/26 05:40:15;;;;;;;27.08;19.73;;;;;;;22.54;76.99;94523.91;4971698;28;20200;-78
2022/07/26 05:42:42;;;;;;;30.83;20.35;;;;;;;22.59;76.62;94523.03;4972470;28;20209;-77
2022/07/26 05:45:10;;;;;;;35.05;21.65;;;;;;;22.56;76.81;94520.97;4965646;28;20604;-80
2022/07/26 05:47:37;;;;;;;28.38;21.30;;;;;;;22.65;76.33;94513.16;4971919;28;20212;-77
2022/07/26 05:50:05;;;;;;;30.10;18.50;;;;;;;22.63;76.40;94506.22;4961719;28;20214;-87
2022/07/26 05:52:31;;;;;;;26.02;18.95;;;;;;;22.77;76.48;94521.38;4971063;28;20950;-77
2022/07/26 05:55:00;;;;;;;28.60;20.23;;;;;;;22.60;76.89;94506.03;4971964;28;20239;-77
2022/07/26 05:57:27;;;;;;;31.05;19.58;;;;;;;22.70;76.73;94513.03;4971283;28;20213;-77
2022/07/26 05:59:53;;;;;;;28.15;19.80;;;;;;;22.82;75.86;94511.44;4960748;28;20622;-77
2022/07/26 06:02:20;;;;;;;28.25;19.73;;;;;;;22.89;75.93;94505.72;4970510;28;20299;-76
2022/07/26 06:04:47;;;;;;;29.73;20.48;;;;;;;22.88;75.93;94512.13;4969003;28;20209;-76
2022/07/26 06:07:14;;;;;;;30.90;20.13;;;;;;;22.85;75.19;94499.47;4971467;28;20663;-76
2022/07/26 06:09:41;;;;;;;25.83;19.40;;;;;;;22.99;74.95;94502.88;4971294;28;20209;-76
2022/07/26 06:12:09;;;;;;;28.35;20.38;;;;;;;23.04;74.91;94502.75;4971532;28;20212;-76
2022/07/26 06:14:36;;;;;;;30.70;20.13;;;;;;;23.08;74.58;94496.56;4971290;28;20224;-76
2022/07/26 06:17:04;;;;;;;30.42;18.50;;;;;;;23.10;74.65;94498.91;4971573;28;20228;-76
2022/07/26 06:19:31;;;;;;;27.83;18.95;;;;;;;23.15;74.17;94488.16;4970876;28;20295;-76
2022/07/26 06:21:58;;;;;;;21.48;18.70;;;;;;;23.25;74.56;94495.91;4968221;28;20211;-78
2022/07/26 06:24:25;;;;;;;30.73;19.25;;;;;;;23.32;74.03;94487.53;4972017;28;20224;-82
2022/07/26 06:26:52;;;;;;;28.77;19.67;;;;;;;23.42;73.28;94490.75;4958658;28;20214;-82
2022/07/26 06:29:20;;;;;;;32.95;20.08;;;;;;;23.44;73.38;94491.22;4959963;28;20201;-84
2022/07/26 06:31:47;;;;;;;31.88;20.52;;;;;;;23.58;72.92;94486.63;4971964;28;20589;-85
2022/07/26 06:34:15;;;;;;;26.10;18.13;;;;;;;23.65;72.14;94488.88;4968286;28;20201;-81
2022/07/26 06:36:42;;;;;;;28.48;19.35;;;;;;;23.67;72.31;94486.69;4966314;28;20236;-82
2022/07/26 06:39:09;;;;;;;23.70;17.17;;;;;;;23.78;73.15;94487.25;4953094;28;20585;-83
2022/07/26 06:41:36;;;;;;;28.95;17.33;;;;;;;23.93;72.99;94489.47;4959224;28;20710;-83
2022/07/26 06:44:03;;;;;;;32.97;19.33;;;;;;;24.03;71.25;94492.69;4965293;28;20220;-79
2022/07/26 06:46:32;;;;;;;35.95;18.73;;;;;;;24.14;70.43;94488.69;4971094;28;20684;-81
2022/07/26 06:48:59;;;;;;;35.55;19.05;;;;;;;24.20;70.07;94484.03;4947733;28;20201;-80
2022/07/26 06:51:25;;;;;;;30.23;18.45;;;;;;;24.19;69.61;94483.22;4963374;28;20221;-80
2022/07/26 06:53:52;;;;;;;27.08;17.40;;;;;;;24.24;70.03;94480.44;4970398;28;20209;-82
2022/07/26 06:56:19;;;;;;;27.88;17.60;;;;;;;24.31;69.62;94485.31;4970769;28;20229;-85
2022/07/26 06:58:46;;;;;;;33.00;18.85;;;;;;;24.40;68.71;94488.00;4964882;28;20204;-81
2022/07/26 07:01:13;;;;;;;29.00;18.60;;;;;;;24.41;67.53;94473.63;4971406;28;20213;-88
2022/07/26 07:03:41;;;;;;;26.73;18.38;;;;;;;24.57;67.76;94480.06;4971474;28;20204;-86
2022/07/26 07:06:08;;;;;;;25.50;16.08;;;;;;;24.65;68.91;94487.28;4968917;28;20924;-85
2022/07/26 07:08:36;;;;;;;30.95;17.00;;;;;;;24.65;68.49;94480.09;4971257;28;20205;-82
2022/07/26 07:11:02;;;;;;;31.80;18.23;;;;;;;24.76;67.34;94484.00;4964601;28;20307;-81
2022/07/26 07:13:29;;;;;;;38.80;17.80;;;;;;;24.83;67.00;94476.41;4970728;28;20212;-82
2022/07/26 07:15:56;;;;;;;29.50;18.63;;;;;;;24.91;66.30;94482.81;4971567;28;20256;-83
2022/07/26 07:18:23;;;;;;;28.77;18.10;;;;;;;25.06;65.47;94482.34;4970898;28;20212;-78
2022/07/26 07:20:51;;;;;;;24.73;17.13;;;;;;;25.33;64.69;94489.25;4963831;28;20216;-79
2022/07/26 07:23:21;;;;;;;24.85;17.15;;;;;;;25.52;63.48;94487.06;4970693;28;20212;-79
2022/07/26 07:25:47;;;;;;;21.70;16.27;;;;;;;25.59;62.03;94481.25;4959862;28;20351;-84
2022/07/26 07:28:14;;;;;;;23.55;17.02;;;;;;;25.66;61.69;94473.56;4970248;28;20569;-86
2022/07/26 07:30:41;;;;;;;24.95;17.35;;;;;;;25.86;61.01;94479.00;4971824;28;20572;-79
2022/07/26 07:33:11;;;;;;;22.63;17.38;;;;;;;25.99;60.77;94493.25;4971803;28;20208;-76
2022/07/26 07:35:38;;;;;;;22.00;16.25;;;;;;;26.14;60.05;94487.41;4958152;28;20361;-79
2022/07/26 07:38:08;;;;;;;26.48;16.50;;;;;;;26.27;59.88;94480.31;4969907;28;20215;-81
2022/07/26 07:40:34;;;;;;;24.65;16.52;;;;;;;26.38;59.14;94478.84;4971043;28;20571;-82
2022/07/26 07:43:01;;;;;;;22.90;16.33;;;;;;;26.52;58.29;94481.28;4964897;28;20214;-83
2022/07/26 07:45:28;;;;;;;29.75;17.33;;;;;;;26.57;58.51;94481.09;4966303;28;20209;-82
2022/07/26 07:47:55;;;;;;;24.30;16.80;;;;;;;26.65;58.40;94478.38;4960987;28;20208;-82
2022/07/26 07:50:22;;;;;;;24.73;15.38;;;;;;;26.83;57.91;94471.09;4963181;28;20328;-81
2022/07/26 07:52:49;;;;;;;25.13;15.82;;;;;;;26.97;57.06;94475.06;4970946;28;20209;-81
2022/07/26 07:55:17;;;;;;;24.67;16.42;;;;;;;27.13;56.25;94471.84;4958649;28;20660;-82
2022/07/26 07:57:44;;;;;;;21.40;15.30;;;;;;;27.24;56.18;94478.34;4960679;28;20238;-80
2022/07/26 08:00:14;;;;;;;21.08;15.60;;;;;;;27.21;55.89;94470.97;4965563;28;20213;-81
2022/07/26 08:02:41;;;;;;;19.25;16.05;;;;;;;27.31;55.70;94468.69;4969717;28;20668;-82
2022/07/26 08:05:08;;;;;;;24.00;16.17;;;;;;;27.41;55.55;94473.66;4959245;28;20284;-81
2022/07/26 08:07:35;;;;;;;24.10;15.23;;;;;;;27.56;54.83;94465.03;4969490;28;20197;-82
2022/07/26 08:10:02;;;;;;;21.67;15.32;;;;;;;27.66;55.22;94468.38;4971006;28;20604;-82
2022/07/26 08:12:30;;;;;;;18.70;15.63;;;;;;;27.68;54.31;94466.19;4962420;28;20220;-81
2022/07/26 08:14:58;;;;;;;19.85;16.58;;;;;;;27.69;53.81;94463.19;4950194;28;20219;-81
2022/07/26 08:17:24;;;;;;;23.85;16.77;;;;;;;27.62;53.53;94460.25;4961282;28;20229;-81
2022/07/26 08:19:51;;;;;;;19.13;15.20;;;;;;;27.66;53.55;94455.03;4963222;28;20205;-81
2022/07/26 08:22:18;;;;;;;18.65;15.20;;;;;;;27.78;53.25;94447.84;4970047;28;20197;-82
2022/07/26 08:24:45;;;;;;;23.63;15.63;;;;;;;27.97;52.59;94453.44;4959158;28;20208;-81
2022/07/26 08:27:12;;;;;;;22.50;14.98;;;;;;;28.11;52.26;94447.78;4971373;28;20228;-81
2022/07/26 08:29:40;;;;;;;21.92;15.65;;;;;;;28.20;52.12;94437.78;4971459;28;20215;-85
2022/07/26 08:32:07;;;;;;;19.92;15.20;;;;;;;28.18;51.74;94442.69;4960756;28;20209;-83
2022/07/26 08:34:34;;;;;;;18.15;14.65;;;;;;;28.25;51.85;94440.25;4963107;28;20275;-82
2022/07/26 08:37:01;;;;;;;22.10;16.08;;;;;;;28.15;51.40;94446.03;4968228;28;20257;-82
2022/07/26 08:39:28;;;;;;;21.52;16.10;;;;;;;28.16;51.01;94439.56;4972649;28;20212;-81
2022/07/26 08:41:56;;;;;;;19.58;15.00;;;;;;;28.04;51.73;94437.66;4968064;28;20212;-82
2022/07/26 08:44:23;;;;;;;22.05;15.20;;;;;;;28.12;51.70;94439.47;4974232;28;20215;-82
2022/07/26 08:46:51;;;;;;;19.65;15.10;;;;;;;28.23;51.49;94434.44;4974356;28;20209;-82
2022/07/26 08:49:18;;;;;;;18.20;15.02;;;;;;;28.38;51.30;94435.66;4973782;28;20209;-81
2022/07/26 08:51:44;;;;;;;18.52;14.20;;;;;;;28.58;50.16;94437.44;4961638;28;20722;-84
2022/07/26 08:54:14;;;;;;;17.25;13.98;;;;;;;28.72;49.59;94429.88;4967799;28;20263;-81
2022/07/26 08:56:49;;;;;;;20.75;13.38;;;;;;;28.90;48.73;94433.06;4974206;28;20231;-80
2022/07/26 08:59:18;;;;;;;17.90;14.60;;;;;;;28.89;48.21;94426.19;4974346;28;20211;-80
2022/07/26 09:01:54;;;;;;;15.30;13.55;;;;;;;29.10;47.06;94430.22;4974197;28;20208;-80
2022/07/26 09:04:22;;;;;;;19.88;14.43;;;;;;;29.25;46.47;94432.22;4968366;28;20591;-80
2022/07/26 09:07:01;;;;;;;18.02;14.57;;;;;;;29.25;46.33;94432.22;4973137;28;20205;-80
2022/07/26 09:09:30;;;;;;;18.67;14.68;;;;;;;29.35;47.32;94427.50;4974812;28;20200;-80
2022/07/26 09:11:57;;;;;;;19.42;14.20;;;;;;;29.46;45.87;94432.03;4973474;28;20219;-81
2022/07/26 09:14:36;;;;;;;17.92;14.60;;;;;;;29.51;45.56;94428.31;4973746;28;20232;-80
2022/07/26 09:17:05;;;;;;;18.35;14.45;;;;;;;29.34;45.57;94431.28;4950765;28;20696;-80
2022/07/26 09:19:33;;;;;;;15.60;13.65;;;;;;;29.26;44.77;94430.31;4967651;28;20238;-80
2022/07/26 09:22:07;;;;;;;16.60;14.15;;;;;;;29.19;44.68;94427.41;4972816;28;20215;-81
2022/07/26 09:24:36;;;;;;;15.98;14.20;;;;;;;29.21;45.04;94423.25;4967601;28;20244;-81
2022/07/26 09:27:06;;;;;;;15.93;13.52;;;;;;;29.38;42.92;94419.53;4971019;28;20208;-80
2022/07/26 09:29:43;;;;;;;19.02;13.32;;;;;;;29.46;43.29;94431.25;4971175;28;20212;-80
2022/07/26 09:32:19;;;;;;;16.70;13.27;;;;;;;29.63;42.94;94414.84;4973941;28;20223;-80
2022/07/26 09:34:50;;;;;;;18.60;12.82;;;;;;;29.81;42.14;94418.81;4963667;28;20216;-79
2022/07/26 09:37:18;;;;;;;16.35;12.73;;;;;;;30.14;40.37;94415.75;4954716;28;20213;-81
2022/07/26 09:39:56;;;;;;;16.23;11.68;;;;;;;30.41;39.70;94417.59;4960824;28;20691;-81
2022/07/26 09:42:24;;;;;;;15.82;11.50;;;;;;;30.69;39.62;94420.91;4972100;28;20256;-81
2022/07/26 09:44:51;;;;;;;15.73;11.75;;;;;;;30.84;38.48;94422.00;4962472;28;20241;-82
2022/07/26 09:47:20;;;;;;;15.18;11.45;;;;;;;30.70;36.62;94424.38;4967091;28;20201;-80
2022/07/26 09:49:47;;;;;;;14.48;11.13;;;;;;;30.50;36.82;94423.56;4962398;28;20204;-81
2022/07/26 09:52:15;;;;;;;17.48;11.77;;;;;;;30.64;37.45;94415.81;4967679;28;20233;-82
2022/07/26 09:54:45;;;;;;;18.70;11.40;;;;;;;30.81;37.70;94417.34;4973223;28;20213;-81
2022/07/26 09:57:16;;;;;;;14.98;11.95;;;;;;;31.05;37.76;94410.97;4972947;28;20727;-82
2022/07/26 09:59:43;;;;;;;13.30;11.93;;;;;;;31.32;37.52;94412.66;4970573;28;20624;-82
2022/07/26 10:02:12;;;;;;;15.27;12.68;;;;;;;31.22;36.89;94411.31;4970729;28;20212;-81
2022/07/26 10:04:41;;;;;;;12.98;11.50;;;;;;;30.93;37.21;94387.72;4968849;28;20211;-81
2022/07/26 10:07:08;;;;;;;16.48;12.38;;;;;;;31.40;37.33;94412.44;4966484;28;20283;-81
2022/07/26 10:09:42;;;;;;;16.48;12.57;;;;;;;31.66;36.35;94411.03;4972642;28;20213;-80
2022/07/26 10:12:14;;;;;;;17.45;12.27;;;;;;;31.63;36.20;94387.53;4973158;28;20197;-79
2022/07/26 10:14:44;;;;;;;14.45;12.25;;;;;;;31.88;36.10;94404.88;4963730;28;20197;-79
2022/07/26 10:17:40;;;;;;;13.38;11.13;;;;;;;31.92;34.06;94395.72;4969945;28;20212;-80
2022/07/26 10:20:10;;;;;;;13.30;11.18;;;;;;;31.91;33.62;94402.25;4966497;28;20628;-82
2022/07/26 10:22:45;;;;;;;12.88;10.30;;;;;;;31.92;33.23;94395.72;4967128;28;20209;-81
2022/07/26 10:25:46;;;;;;;12.23;10.93;;;;;;;31.75;33.67;94406.94;4968375;28;20563;-81
2022/07/26 10:28:25;;;;;;;12.32;10.50;;;;;;;31.66;34.40;94395.66;4960944;28;20250;-80
2022/07/26 10:30:52;;;;;;;15.38;11.15;;;;;;;31.78;33.86;94392.00;4968222;28;20295;-80
2022/07/26 10:33:23;;;;;;;12.50;10.95;;;;;;;32.03;33.71;94390.56;4973106;28;20660;-81
2022/07/26 10:35:51;;;;;;;14.75;10.43;;;;;;;32.24;33.95;94376.66;4968365;28;20216;-80
2022/07/26 10:38:24;;;;;;;19.13;11.20;;;;;;;32.73;33.21;94382.78;4971457;28;20291;-82
2022/07/26 10:40:57;;;;;;;14.15;10.95;;;;;;;32.95;32.50;94376.53;4966172;28;20220;-80
2022/07/26 10:43:24;;;;;;;12.85;10.05;;;;;;;33.07;32.36;94384.41;4969276;28;20205;-83
2022/07/26 10:46:23;;;;;;;10.52;9.50;;;;;;;33.13;30.80;94376.00;4969262;28;20231;-80
2022/07/26 10:48:57;;;;;;;13.00;10.50;;;;;;;33.31;31.46;94379.66;4955168;28;20208;-81
2022/07/26 10:51:28;;;;;;;12.35;10.13;;;;;;;33.54;30.47;94374.91;4971780;28;20710;-81
2022/07/26 10:54:02;;;;;;;14.18;9.82;;;;;;;33.73;30.65;94360.50;4969837;28;20280;-80
2022/07/26 10:56:29;;;;;;;15.10;10.00;;;;;;;33.87;30.73;94360.63;4962444;28;20660;-80
2022/07/26 10:58:56;;;;;;;11.00;9.90;;;;;;;33.67;30.41;94362.75;4969361;28;20321;-81
2022/07/26 11:01:31;;;;;;;11.50;9.68;;;;;;;33.55;30.37;94363.78;4971888;28;20212;-81
2022/07/26 11:03:59;;;;;;;13.40;9.98;;;;;;;33.64;30.68;94355.41;4972243;28;20288;-79
2022/07/26 11:06:29;;;;;;;14.82;9.30;;;;;;;34.03;29.77;94353.81;4958733;28;20687;-80
2022/07/26 11:08:56;;;;;;;11.25;9.93;;;;;;;34.11;29.52;94350.03;4971467;28;20213;-80
2022/07/26 11:11:29;;;;;;;10.88;9.75;;;;;;;34.38;29.90;94344.44;4965734;28;20201;-80
2022/07/26 11:14:07;;;;;;;11.50;9.45;;;;;;;34.66;28.91;94342.72;4971789;28;20260;-80
2022/07/26 11:16:38;;;;;;;13.05;9.45;;;;;;;34.41;29.07;94336.38;4971653;28;20213;-80
2022/07/26 11:19:14;;;;;;;11.93;8.73;;;;;;;34.54;28.57;94337.63;4959568;28;20212;-80
2022/07/26 11:21:43;;;;;;;13.02;9.38;;;;;;;34.88;29.72;94337.41;4964661;28;20208;-80